sensor_id;sensor_type;location;lat;lon;timestamp;pressure;altitude;pressure_sealevel;temperature;humidity
71774;BME280;59607;52.130;5.430;2023-06-14T00:00:53;101588.84;;;20.15;46.90
71774;BME280;59607;52.130;5.430;2023-06-14T00:03:28;101591.47;;;20.29;46.64
71774;BME280;59607;52.130;5.430;2023-06-14T00:05:58;101591.13;;;19.98;46.61
71774;BME280;59607;52.130;5.430;2023-06-14T00:08:30;101597.06;;;19.73;47.99
71774;BME280;59607;52.130;5.430;2023-06-14T00:10:56;101594.19;;;19.95;48.12
71774;BME280;59607;52.130;5.430;2023-06-14T00:13:26;101598.03;;;20.26;47.30
71774;BME280;59607;52.130;5.430;2023-06-14T00:15:53;101588.84;;;20.22;47.09
71774;BME280;59607;52.130;5.430;2023-06-14T00:18:22;101590.47;;;20.23;47.32
71774;BME280;59607;52.130;5.430;2023-06-14T00:20:56;101583.91;;;20.26;46.86
71774;BME280;59607;52.130;5.430;2023-06-14T00:23:22;101589.81;;;20.34;46.96
71774;BME280;59607;52.130;5.430;2023-06-14T00:25:49;101598.09;;;20.13;46.79
71774;BME280;59607;52.130;5.430;2023-06-14T00:28:21;101596.63;;;20.10;46.41
71774;BME280;59607;52.130;5.430;2023-06-14T00:30:47;101607.91;;;19.92;47.71
71774;BME280;59607;52.130;5.430;2023-06-14T00:33:23;101597.47;;;19.83;46.70
71774;BME280;59607;52.130;5.430;2023-06-14T00:35:51;101607.09;;;19.91;47.48
71774;BME280;59607;52.130;5.430;2023-06-14T00:38:41;101603.81;;;19.76;46.62
71774;BME280;59607;52.130;5.430;2023-06-14T00:41:07;101596.84;;;19.61;47.22
71774;BME280;59607;52.130;5.430;2023-06-14T00:43:34;101598.31;;;19.77;48.42
71774;BME280;59607;52.130;5.430;2023-06-14T00:46:06;101592.56;;;20.07;47.57
71774;BME280;59607;52.130;5.430;2023-06-14T00:48:36;101600.16;;;19.83;48.20
71774;BME280;59607;52.130;5.430;2023-06-14T00:51:04;101598.06;;;19.99;47.33
71774;BME280;59607;52.130;5.430;2023-06-14T00:53:34;101593.81;;;19.64;48.04
71774;BME280;59607;52.130;5.430;2023-06-14T00:56:05;101599.31;;;19.83;47.79
71774;BME280;59607;52.130;5.430;2023-06-14T00:58:38;101590.94;;;19.66;47.52
71774;BME280;59607;52.130;5.430;2023-06-14T01:01:04;101597.88;;;19.60;48.45
71774;BME280;59607;52.130;5.430;2023-06-14T01:03:33;101600.34;;;19.82;48.16
71774;BME280;59607;52.130;5.430;2023-06-14T01:11:41;101600.16;;;19.77;47.46
71774;BME280;59607;52.130;5.430;2023-06-14T01:14:12;101595.66;;;19.70;48.11
71774;BME280;59607;52.130;5.430;2023-06-14T01:17:07;101597.50;;;19.50;48.34
71774;BME280;59607;52.130;5.430;2023-06-14T01:19:42;101595.44;;;19.58;48.41
71774;BME280;59607;52.130;5.430;2023-06-14T01:22:17;101595.22;;;19.67;48.83
71774;BME280;59607;52.130;5.430;2023-06-14T01:24:44;101595.44;;;19.58;48.54
71774;BME280;59607;52.130;5.430;2023-06-14T01:27:14;101590.31;;;19.50;48.68
71774;BME280;59607;52.130;5.430;2023-06-14T01:29:43;101594.41;;;19.73;48.40
71774;BME280;59607;52.130;5.430;2023-06-14T01:32:18;101594.19;;;19.81;48.17
71774;BME280;59607;52.130;5.430;2023-06-14T01:34:45;101593.81;;;19.51;48.78
71774;BME280;59607;52.130;5.430;2023-06-14T01:37:27;101595.22;;;19.67;48.50
71774;BME280;59607;52.130;5.430;2023-06-14T01:39:55;101596.84;;;19.68;47.75
71774;BME280;59607;52.130;5.430;2023-06-14T01:42:26;101600.75;;;19.31;49.66
71774;BME280;59607;52.130;5.430;2023-06-14T01:44:55;101604.03;;;19.47;48.70
71774;BME280;59607;52.130;5.430;2023-06-14T01:47:23;101593.56;;;19.39;48.14
71774;BME280;59607;52.130;5.430;2023-06-14T01:49:50;101595.22;;;19.33;49.27
71774;BME280;59607;52.130;5.430;2023-06-14T01:52:22;101605.44;;;19.22;48.75
71774;BME280;59607;52.130;5.430;2023-06-14T01:54:52;101595.22;;;19.26;49.47
71774;BME280;59607;52.130;5.430;2023-06-14T02:48:53;101604.97;;;18.14;51.82
71774;BME280;59607;52.130;5.430;2023-06-14T02:51:23;101610.97;;;18.30;52.27
71774;BME280;59607;52.130;5.430;2023-06-14T02:53:50;101604.41;;;18.61;50.66
71774;BME280;59607;52.130;5.430;2023-06-14T02:56:17;101602.44;;;18.77;50.45
71774;BME280;59607;52.130;5.430;2023-06-14T02:58:48;101605.66;;;18.72;49.90
71774;BME280;59607;52.130;5.430;2023-06-14T03:01:16;101609.31;;;18.22;51.44
71774;BME280;59607;52.130;5.430;2023-06-14T03:03:43;101616.94;;;18.03;51.75
71774;BME280;59607;52.130;5.430;2023-06-14T03:06:13;101627.44;;;17.89;52.07
71774;BME280;59607;52.130;5.430;2023-06-14T03:08:42;101624.25;;;17.72;53.06
71774;BME280;59607;52.130;5.430;2023-06-14T03:11:10;101631.88;;;18.11;52.86
71774;BME280;59607;52.130;5.430;2023-06-14T03:13:42;101629.25;;;18.46;51.37
71774;BME280;59607;52.130;5.430;2023-06-14T03:16:10;101634.13;;;18.43;52.20
71774;BME280;59607;52.130;5.430;2023-06-14T03:18:40;101627.88;;;18.57;51.54
71774;BME280;59607;52.130;5.430;2023-06-14T03:21:10;101630.59;;;18.71;51.49
71774;BME280;59607;52.130;5.430;2023-06-14T03:23:40;101637.03;;;18.97;50.55
71774;BME280;59607;52.130;5.430;2023-06-14T03:26:09;101635.53;;;18.74;51.37
71774;BME280;59607;52.130;5.430;2023-06-14T03:28:40;101638.22;;;18.38;51.11
71774;BME280;59607;52.130;5.430;2023-06-14T03:31:06;101639.00;;;18.04;51.92
71774;BME280;59607;52.130;5.430;2023-06-14T03:33:39;101637.13;;;18.04;51.80
71774;BME280;59607;52.130;5.430;2023-06-14T03:36:06;101642.78;;;18.16;52.23
71774;BME280;59607;52.130;5.430;2023-06-14T03:38:35;101639.78;;;18.26;52.32
71774;BME280;59607;52.130;5.430;2023-06-14T03:41:02;101633.94;;;18.37;52.27
71774;BME280;59607;52.130;5.430;2023-06-14T03:43:31;101643.28;;;18.33;52.17
71774;BME280;59607;52.130;5.430;2023-06-14T03:46:01;101646.97;;;18.32;51.78
71774;BME280;59607;52.130;5.430;2023-06-14T03:48:27;101643.72;;;18.37;52.17
71774;BME280;59607;52.130;5.430;2023-06-14T03:50:57;101643.56;;;18.17;51.56
71774;BME280;59607;52.130;5.430;2023-06-14T03:53:32;101656.25;;;17.93;52.13
71774;BME280;59607;52.130;5.430;2023-06-14T03:56:19;101661.81;;;18.20;52.14
71774;BME280;59607;52.130;5.430;2023-06-14T03:58:46;101649.47;;;18.41;52.08
71774;BME280;59607;52.130;5.430;2023-06-14T04:01:13;101649.19;;;18.71;51.51
71774;BME280;59607;52.130;5.430;2023-06-14T04:03:39;101655.31;;;18.65;50.97
71774;BME280;59607;52.130;5.430;2023-06-14T04:06:11;101654.69;;;18.62;51.07
71774;BME280;59607;52.130;5.430;2023-06-14T04:08:38;101663.97;;;18.45;52.22
71774;BME280;59607;52.130;5.430;2023-06-14T04:11:06;101670.34;;;18.86;50.66
71774;BME280;59607;52.130;5.430;2023-06-14T04:13:36;101676.31;;;18.59;50.72
71774;BME280;59607;52.130;5.430;2023-06-14T04:16:23;101673.22;;;18.49;51.50
71774;BME280;59607;52.130;5.430;2023-06-14T04:18:54;101676.72;;;18.56;51.40
71774;BME280;59607;52.130;5.430;2023-06-14T04:21:24;101676.00;;;18.76;51.15
71774;BME280;59607;52.130;5.430;2023-06-14T04:23:56;101672.66;;;20.13;48.87
71774;BME280;59607;52.130;5.430;2023-06-14T04:26:30;101672.25;;;22.37;43.77
71774;BME280;59607;52.130;5.430;2023-06-14T04:29:19;101668.31;;;23.81;40.84
71774;BME280;59607;52.130;5.430;2023-06-14T04:31:49;101662.22;;;24.46;39.36
71774;BME280;59607;52.130;5.430;2023-06-14T04:34:22;101664.16;;;25.21;38.00
71774;BME280;59607;52.130;5.430;2023-06-14T04:36:53;101666.44;;;25.12;37.39
71774;BME280;59607;52.130;5.430;2023-06-14T04:39:25;101668.13;;;25.65;37.06
71774;BME280;59607;52.130;5.430;2023-06-14T04:41:56;101666.19;;;26.34;35.64
71774;BME280;59607;52.130;5.430;2023-06-14T04:44:26;101672.94;;;26.19;35.49
71774;BME280;59607;52.130;5.430;2023-06-14T04:46:59;101669.94;;;26.55;34.89
71774;BME280;59607;52.130;5.430;2023-06-14T04:49:29;101672.75;;;26.93;33.89
71774;BME280;59607;52.130;5.430;2023-06-14T04:52:02;101670.72;;;27.06;34.00
71774;BME280;59607;52.130;5.430;2023-06-14T04:54:29;101677.06;;;27.22;34.11
71774;BME280;59607;52.130;5.430;2023-06-14T04:57:01;101677.69;;;27.62;33.16
71774;BME280;59607;52.130;5.430;2023-06-14T04:59:28;101668.34;;;28.24;32.61
71774;BME280;59607;52.130;5.430;2023-06-14T05:02:03;101683.41;;;28.14;32.40
71774;BME280;59607;52.130;5.430;2023-06-14T05:04:29;101677.50;;;28.23;32.01
71774;BME280;59607;52.130;5.430;2023-06-14T05:07:07;101678.63;;;29.06;31.79
71774;BME280;59607;52.130;5.430;2023-06-14T05:09:36;101673.50;;;29.47;30.61
71774;BME280;59607;52.130;5.430;2023-06-14T05:12:08;101679.16;;;29.45;30.80
71774;BME280;59607;52.130;5.430;2023-06-14T05:14:39;101682.13;;;29.33;30.25
71774;BME280;59607;52.130;5.430;2023-06-14T05:17:25;101676.19;;;29.57;30.58
71774;BME280;59607;52.130;5.430;2023-06-14T05:19:57;101681.06;;;29.76;29.71
71774;BME280;59607;52.130;5.430;2023-06-14T05:22:25;101691.84;;;29.86;29.79
71774;BME280;59607;52.130;5.430;2023-06-14T05:24:55;101692.69;;;29.24;30.44
71774;BME280;59607;52.130;5.430;2023-06-14T05:27:21;101683.47;;;29.77;29.88
71774;BME280;59607;52.130;5.430;2023-06-14T05:29:51;101689.44;;;29.79;29.77
71774;BME280;59607;52.130;5.430;2023-06-14T05:32:23;101693.75;;;29.54;30.26
71774;BME280;59607;52.130;5.430;2023-06-14T05:34:50;101691.03;;;29.23;30.69
71774;BME280;59607;52.130;5.430;2023-06-14T05:37:22;101692.16;;;29.27;30.28
71774;BME280;59607;52.130;5.430;2023-06-14T05:39:48;101696.44;;;29.54;29.86
71774;BME280;59607;52.130;5.430;2023-06-14T05:42:17;101699.44;;;29.11;30.35
71774;BME280;59607;52.130;5.430;2023-06-14T05:44:47;101702.94;;;29.53;29.73
71774;BME280;59607;52.130;5.430;2023-06-14T05:47:13;101705.28;;;28.92;30.48
71774;BME280;59607;52.130;5.430;2023-06-14T05:49:42;101704.41;;;28.61;31.09
71774;BME280;59607;52.130;5.430;2023-06-14T05:52:11;101705.03;;;28.89;31.07
71774;BME280;59607;52.130;5.430;2023-06-14T05:54:39;101706.97;;;29.09;30.36
71774;BME280;59607;52.130;5.430;2023-06-14T05:57:08;101711.88;;;29.59;29.81
71774;BME280;59607;52.130;5.430;2023-06-14T05:59:37;101714.22;;;30.23;28.92
71774;BME280;59607;52.130;5.430;2023-06-14T06:02:05;101719.94;;;29.28;30.01
71774;BME280;59607;52.130;5.430;2023-06-14T06:04:37;101714.47;;;28.86;30.84
71774;BME280;59607;52.130;5.430;2023-06-14T06:07:04;101722.00;;;28.79;30.76
71774;BME280;59607;52.130;5.430;2023-06-14T06:09:32;101722.13;;;29.31;29.81
71774;BME280;59607;52.130;5.430;2023-06-14T06:12:04;101725.75;;;28.67;30.48
71774;BME280;59607;52.130;5.430;2023-06-14T06:14:35;101727.88;;;28.60;30.52
71774;BME280;59607;52.130;5.430;2023-06-14T06:17:03;101726.72;;;27.64;31.01
71774;BME280;59607;52.130;5.430;2023-06-14T06:19:30;101733.22;;;26.85;32.89
71774;BME280;59607;52.130;5.430;2023-06-14T06:21:59;101739.28;;;25.96;34.20
71774;BME280;59607;52.130;5.430;2023-06-14T06:24:27;101742.75;;;25.16;35.98
71774;BME280;59607;52.130;5.430;2023-06-14T06:26:54;101739.31;;;24.92;36.83
71774;BME280;59607;52.130;5.430;2023-06-14T06:29:20;101736.41;;;24.81;36.87
71774;BME280;59607;52.130;5.430;2023-06-14T06:31:52;101742.16;;;24.61;37.25
71774;BME280;59607;52.130;5.430;2023-06-14T06:34:19;101745.69;;;24.37;37.32
71774;BME280;59607;52.130;5.430;2023-06-14T06:36:54;101747.50;;;24.01;38.38
71774;BME280;59607;52.130;5.430;2023-06-14T06:39:21;101750.16;;;23.77;38.47
71774;BME280;59607;52.130;5.430;2023-06-14T06:41:47;101750.28;;;23.39;39.07
71774;BME280;59607;52.130;5.430;2023-06-14T06:44:14;101750.94;;;23.35;39.53
71774;BME280;59607;52.130;5.430;2023-06-14T06:46:43;101757.59;;;23.13;39.83
71774;BME280;59607;52.130;5.430;2023-06-14T06:49:10;101762.88;;;23.39;39.69
71774;BME280;59607;52.130;5.430;2023-06-14T06:51:59;101756.94;;;23.49;39.48
71774;BME280;59607;52.130;5.430;2023-06-14T06:54:28;101761.19;;;23.38;39.69
71774;BME280;59607;52.130;5.430;2023-06-14T06:56:55;101768.97;;;23.27;40.31
71774;BME280;59607;52.130;5.430;2023-06-14T06:59:27;101766.03;;;23.48;39.86
71774;BME280;59607;52.130;5.430;2023-06-14T07:01:54;101769.66;;;23.53;39.49
71774;BME280;59607;52.130;5.430;2023-06-14T07:04:24;101776.28;;;23.51;39.26
71774;BME280;59607;52.130;5.430;2023-06-14T07:06:51;101769.16;;;23.45;39.42
71774;BME280;59607;52.130;5.430;2023-06-14T07:09:18;101775.38;;;23.57;39.61
71774;BME280;59607;52.130;5.430;2023-06-14T07:11:49;101769.97;;;23.76;39.03
71774;BME280;59607;52.130;5.430;2023-06-14T07:14:16;101775.13;;;23.59;39.20
71774;BME280;59607;52.130;5.430;2023-06-14T07:16:43;101782.47;;;23.63;38.67
71774;BME280;59607;52.130;5.430;2023-06-14T07:19:10;101781.78;;;23.56;39.24
71774;BME280;59607;52.130;5.430;2023-06-14T07:21:39;101779.00;;;23.63;38.88
71774;BME280;59607;52.130;5.430;2023-06-14T07:24:06;101780.53;;;23.71;39.16
71774;BME280;59607;52.130;5.430;2023-06-14T07:26:37;101781.38;;;23.71;38.47
71774;BME280;59607;52.130;5.430;2023-06-14T07:29:04;101780.47;;;23.89;38.73
71774;BME280;59607;52.130;5.430;2023-06-14T07:31:30;101786.91;;;24.00;38.49
71774;BME280;59607;52.130;5.430;2023-06-14T07:34:00;101787.47;;;23.90;38.03
71774;BME280;59607;52.130;5.430;2023-06-14T07:36:30;101789.81;;;23.99;38.52
71774;BME280;59607;52.130;5.430;2023-06-14T07:38:56;101789.03;;;24.10;37.88
71774;BME280;59607;52.130;5.430;2023-06-14T07:41:25;101786.69;;;24.02;37.52
71774;BME280;59607;52.130;5.430;2023-06-14T08:36:20;101800.47;;;24.77;34.57
71774;BME280;59607;52.130;5.430;2023-06-14T08:38:55;101804.91;;;24.96;33.87
71774;BME280;59607;52.130;5.430;2023-06-14T08:41:22;101796.25;;;24.94;33.78
71774;BME280;59607;52.130;5.430;2023-06-14T08:43:57;101802.66;;;25.05;34.09
71774;BME280;59607;52.130;5.430;2023-06-14T08:46:25;101797.50;;;25.03;33.37
71774;BME280;59607;52.130;5.430;2023-06-14T08:49:01;101795.81;;;24.73;33.83
71774;BME280;59607;52.130;5.430;2023-06-14T08:51:31;101797.66;;;24.96;33.30
71774;BME280;59607;52.130;5.430;2023-06-14T08:54:03;101800.53;;;25.07;32.71
71774;BME280;59607;52.130;5.430;2023-06-14T08:56:31;101799.88;;;24.99;32.87
71774;BME280;59607;52.130;5.430;2023-06-14T08:59:06;101793.72;;;25.28;32.68
71774;BME280;59607;52.130;5.430;2023-06-14T09:01:33;101814.25;;;25.63;32.48
71774;BME280;59607;52.130;5.430;2023-06-14T09:04:04;101795.94;;;25.78;32.14
71774;BME280;59607;52.130;5.430;2023-06-14T09:06:35;101797.03;;;25.77;31.77
71774;BME280;59607;52.130;5.430;2023-06-14T09:09:05;101803.59;;;25.69;31.93
71774;BME280;59607;52.130;5.430;2023-06-14T09:11:34;101805.72;;;25.67;32.05
71774;BME280;59607;52.130;5.430;2023-06-14T09:14:01;101802.00;;;25.56;31.74
71774;BME280;59607;52.130;5.430;2023-06-14T09:16:36;101800.84;;;25.51;32.36
71774;BME280;59607;52.130;5.430;2023-06-14T09:19:02;101802.50;;;25.53;32.30
71774;BME280;59607;52.130;5.430;2023-06-14T09:21:33;101807.38;;;25.68;32.62
71774;BME280;59607;52.130;5.430;2023-06-14T09:24:00;101790.56;;;25.78;32.32
71774;BME280;59607;52.130;5.430;2023-06-14T09:26:26;101808.34;;;25.49;33.00
71774;BME280;59607;52.130;5.430;2023-06-14T09:28:54;101796.63;;;25.68;32.64
71774;BME280;59607;52.130;5.430;2023-06-14T09:31:25;101813.53;;;25.68;31.01
71774;BME280;59607;52.130;5.430;2023-06-14T09:33:51;101812.38;;;25.35;31.00
71774;BME280;59607;52.130;5.430;2023-06-14T09:36:27;101817.50;;;25.36;31.47
71774;BME280;59607;52.130;5.430;2023-06-14T09:39:04;101816.03;;;25.29;30.78
71774;BME280;59607;52.130;5.430;2023-06-14T09:41:40;101823.25;;;25.69;30.79
71774;BME280;59607;52.130;5.430;2023-06-14T09:45:03;101814.84;;;25.83;30.45
71774;BME280;59607;52.130;5.430;2023-06-14T09:47:33;101808.78;;;26.05;30.67
71774;BME280;59607;52.130;5.430;2023-06-14T09:49:59;101808.53;;;26.06;31.10
71774;BME280;59607;52.130;5.430;2023-06-14T09:52:30;101808.53;;;26.06;31.01
71774;BME280;59607;52.130;5.430;2023-06-14T09:55:13;101803.63;;;26.20;30.76
71774;BME280;59607;52.130;5.430;2023-06-14T09:57:45;101802.97;;;26.47;30.55
71774;BME280;59607;52.130;5.430;2023-06-14T10:00:48;101806.47;;;26.31;30.72
71774;BME280;59607;52.130;5.430;2023-06-14T10:03:25;101806.16;;;26.10;30.91
71774;BME280;59607;52.130;5.430;2023-06-14T10:06:03;101806.97;;;25.93;30.92
71774;BME280;59607;52.130;5.430;2023-06-14T10:08:36;101803.94;;;26.07;30.21
71774;BME280;59607;52.130;5.430;2023-06-14T10:11:06;101791.75;;;25.82;30.96
71774;BME280;59607;52.130;5.430;2023-06-14T10:13:33;101798.00;;;25.87;30.70
71774;BME280;59607;52.130;5.430;2023-06-14T10:16:16;101802.72;;;25.80;29.90
71774;BME280;59607;52.130;5.430;2023-06-14T10:19:10;101802.56;;;26.04;29.59
71774;BME280;59607;52.130;5.430;2023-06-14T10:21:46;101804.94;;;26.18;29.35
71774;BME280;59607;52.130;5.430;2023-06-14T10:24:48;101804.03;;;26.29;30.49
71774;BME280;59607;52.130;5.430;2023-06-14T10:27:20;101795.97;;;26.46;29.00
71774;BME280;59607;52.130;5.430;2023-06-14T10:32:22;101789.13;;;26.39;29.11
71774;BME280;59607;52.130;5.430;2023-06-14T10:35:04;101794.78;;;26.37;29.74
71774;BME280;59607;52.130;5.430;2023-06-14T10:37:40;101793.34;;;26.52;30.08
71774;BME280;59607;52.130;5.430;2023-06-14T10:40:07;101788.41;;;26.66;30.13
71774;BME280;59607;52.130;5.430;2023-06-14T10:42:37;101784.78;;;26.55;30.19
71774;BME280;59607;52.130;5.430;2023-06-14T10:45:04;101791.16;;;26.48;31.17
71774;BME280;59607;52.130;5.430;2023-06-14T10:47:47;101780.66;;;26.47;29.87
71774;BME280;59607;52.130;5.430;2023-06-14T10:50:19;101791.56;;;26.06;30.58
71774;BME280;59607;52.130;5.430;2023-06-14T10:52:53;101788.41;;;26.43;30.50
71774;BME280;59607;52.130;5.430;2023-06-14T10:55:23;101792.34;;;26.58;30.06
71774;BME280;59607;52.130;5.430;2023-06-14T10:57:53;101806.41;;;26.25;30.11
71774;BME280;59607;52.130;5.430;2023-06-14T11:00:28;101786.66;;;26.20;30.82
71774;BME280;59607;52.130;5.430;2023-06-14T11:06:12;101781.69;;;26.46;30.56
71774;BME280;59607;52.130;5.430;2023-06-14T11:09:11;101795.38;;;26.61;30.27
71774;BME280;59607;52.130;5.430;2023-06-14T11:11:45;101784.78;;;26.55;30.23
71774;BME280;59607;52.130;5.430;2023-06-14T11:14:15;101789.75;;;26.63;30.34
71774;BME280;59607;52.130;5.430;2023-06-14T11:16:42;101781.50;;;26.70;31.09
71774;BME280;59607;52.130;5.430;2023-06-14T11:19:08;101791.09;;;26.43;31.20
71774;BME280;59607;52.130;5.430;2023-06-14T11:21:39;101786.53;;;26.44;30.53
71774;BME280;59607;52.130;5.430;2023-06-14T11:24:14;101774.22;;;26.70;30.54
71774;BME280;59607;52.130;5.430;2023-06-14T11:26:43;101775.91;;;26.99;30.19
71774;BME280;59607;52.130;5.430;2023-06-14T11:29:12;101787.00;;;26.80;29.70
71774;BME280;59607;52.130;5.430;2023-06-14T11:31:43;101775.22;;;26.64;29.38
71774;BME280;59607;52.130;5.430;2023-06-14T11:34:31;101783.94;;;26.94;29.01
71774;BME280;59607;52.130;5.430;2023-06-14T11:36:59;101769.47;;;27.00;29.36
71774;BME280;59607;52.130;5.430;2023-06-14T11:39:25;101771.25;;;26.94;29.21
71774;BME280;59607;52.130;5.430;2023-06-14T11:41:55;101763.69;;;26.91;29.67
71774;BME280;59607;52.130;5.430;2023-06-14T11:44:23;101760.41;;;27.06;30.63
71774;BME280;59607;52.130;5.430;2023-06-14T11:46:50;101764.25;;;26.93;30.60
71774;BME280;59607;52.130;5.430;2023-06-14T11:49:20;101758.13;;;26.76;29.75
71774;BME280;59607;52.130;5.430;2023-06-14T11:51:46;101753.44;;;26.88;29.91
71774;BME280;59607;52.130;5.430;2023-06-14T11:54:17;101769.81;;;27.04;30.31
71774;BME280;59607;52.130;5.430;2023-06-14T11:56:43;101768.41;;;26.79;29.66
71774;BME280;59607;52.130;5.430;2023-06-14T11:59:20;101774.34;;;26.81;29.32
71774;BME280;59607;52.130;5.430;2023-06-14T12:01:47;101769.84;;;26.86;29.62
71774;BME280;59607;52.130;5.430;2023-06-14T12:04:14;101766.34;;;27.08;29.88
71774;BME280;59607;52.130;5.430;2023-06-14T12:06:50;101765.22;;;27.27;29.58
71774;BME280;59607;52.130;5.430;2023-06-14T12:09:19;101767.97;;;26.87;29.49
71774;BME280;59607;52.130;5.430;2023-06-14T12:11:46;101768.22;;;27.08;29.75
71774;BME280;59607;52.130;5.430;2023-06-14T12:14:15;101768.03;;;26.92;30.48
71774;BME280;59607;52.130;5.430;2023-06-14T12:16:46;101762.84;;;27.08;29.96
71774;BME280;59607;52.130;5.430;2023-06-14T12:19:18;101774.28;;;26.98;30.24
71774;BME280;59607;52.130;5.430;2023-06-14T12:21:50;101770.03;;;27.25;29.93
71774;BME280;59607;52.130;5.430;2023-06-14T12:24:27;101760.81;;;27.20;30.25
71774;BME280;59607;52.130;5.430;2023-06-14T12:27:01;101769.00;;;27.03;30.72
71774;BME280;59607;52.130;5.430;2023-06-14T12:29:31;101772.91;;;27.18;30.40
71774;BME280;59607;52.130;5.430;2023-06-14T12:32:15;101770.34;;;27.56;29.85
71774;BME280;59607;52.130;5.430;2023-06-14T12:34:51;101776.78;;;27.55;29.64
71774;BME280;59607;52.130;5.430;2023-06-14T12:37:20;101769.41;;;27.45;29.70
71774;BME280;59607;52.130;5.430;2023-06-14T12:39:47;101784.00;;;27.21;29.19
71774;BME280;59607;52.130;5.430;2023-06-14T12:42:13;101768.03;;;26.92;29.72
71774;BME280;59607;52.130;5.430;2023-06-14T13:33:56;101776.72;;;26.99;30.21
71774;BME280;59607;52.130;5.430;2023-06-14T13:36:23;101783.97;;;26.77;30.03
71774;BME280;59607;52.130;5.430;2023-06-14T13:38:55;101784.69;;;26.89;30.45
71774;BME280;59607;52.130;5.430;2023-06-14T13:41:22;101783.63;;;27.13;30.79
71774;BME280;59607;52.130;5.430;2023-06-14T13:43:56;101782.97;;;27.28;30.49
71774;BME280;59607;52.130;5.430;2023-06-14T13:46:22;101784.63;;;27.06;30.81
71774;BME280;59607;52.130;5.430;2023-06-14T13:48:54;101791.50;;;26.74;30.67
71774;BME280;59607;52.130;5.430;2023-06-14T13:51:23;101781.75;;;26.91;30.86
71774;BME280;59607;52.130;5.430;2023-06-14T13:53:50;101770.97;;;27.13;30.17
71774;BME280;59607;52.130;5.430;2023-06-14T13:56:23;101779.91;;;26.96;30.36
71774;BME280;59607;52.130;5.430;2023-06-14T13:58:50;101768.13;;;27.25;29.84
71774;BME280;59607;52.130;5.430;2023-06-14T14:01:25;101774.94;;;27.05;29.70
71774;BME280;59607;52.130;5.430;2023-06-14T14:03:53;101778.81;;;27.15;29.77
71774;BME280;59607;52.130;5.430;2023-06-14T14:06:22;101773.22;;;27.21;29.34
71774;BME280;59607;52.130;5.430;2023-06-14T14:08:49;101774.84;;;27.00;29.12
71774;BME280;59607;52.130;5.430;2023-06-14T14:11:15;101766.97;;;26.93;29.27
71774;BME280;59607;52.130;5.430;2023-06-14T14:13:42;101767.91;;;27.04;29.34
71774;BME280;59607;52.130;5.430;2023-06-14T14:16:09;101765.69;;;27.23;29.62
71774;BME280;59607;52.130;5.430;2023-06-14T14:18:39;101767.22;;;27.14;29.18
71774;BME280;59607;52.130;5.430;2023-06-14T14:21:11;101762.97;;;27.18;29.09
71774;BME280;59607;52.130;5.430;2023-06-14T14:23:38;101763.97;;;27.12;28.77
71774;BME280;59607;52.130;5.430;2023-06-14T14:26:07;101767.78;;;26.94;29.73
71774;BME280;59607;52.130;5.430;2023-06-14T14:28:45;101760.53;;;27.17;29.78
71774;BME280;59607;52.130;5.430;2023-06-14T14:31:15;101760.72;;;27.38;29.06
71774;BME280;59607;52.130;5.430;2023-06-14T14:33:43;101763.09;;;27.34;29.93
71774;BME280;59607;52.130;5.430;2023-06-14T14:36:09;101761.13;;;27.24;29.74
71774;BME280;59607;52.130;5.430;2023-06-14T14:38:39;101770.84;;;27.03;29.69
71774;BME280;59607;52.130;5.430;2023-06-14T14:41:12;101766.53;;;27.02;29.35
71774;BME280;59607;52.130;5.430;2023-06-14T14:43:44;101762.91;;;27.13;29.94
71774;BME280;59607;52.130;5.430;2023-06-14T14:46:15;101757.66;;;27.29;29.24
71774;BME280;59607;52.130;5.430;2023-06-14T14:48:46;101757.47;;;27.35;29.50
71774;BME280;59607;52.130;5.430;2023-06-14T14:51:15;101751.00;;;27.09;28.56
71774;BME280;59607;52.130;5.430;2023-06-14T14:53:43;101758.09;;;27.15;28.92
71774;BME280;59607;52.130;5.430;2023-06-14T14:56:25;101747.25;;;27.10;29.04
71774;BME280;59607;52.130;5.430;2023-06-14T14:58:57;101762.66;;;27.15;29.12
71774;BME280;59607;52.130;5.430;2023-06-14T15:01:23;101759.97;;;27.15;29.03
71774;BME280;59607;52.130;5.430;2023-06-14T15:03:54;101764.25;;;27.43;28.63
71774;BME280;59607;52.130;5.430;2023-06-14T15:06:25;101759.38;;;27.13;28.27
71774;BME280;59607;52.130;5.430;2023-06-14T15:08:53;101759.84;;;27.32;29.23
71774;BME280;59607;52.130;5.430;2023-06-14T15:11:26;101762.72;;;27.20;28.75
71774;BME280;59607;52.130;5.430;2023-06-14T15:13:53;101761.38;;;27.22;28.27
71774;BME280;59607;52.130;5.430;2023-06-14T15:16:33;101757.59;;;27.23;27.81
71774;BME280;59607;52.130;5.430;2023-06-14T15:19:01;101760.72;;;27.10;28.41
71774;BME280;59607;52.130;5.430;2023-06-14T15:21:29;101753.41;;;27.05;29.30
71774;BME280;59607;52.130;5.430;2023-06-14T15:23:56;101756.63;;;26.85;29.39
71774;BME280;59607;52.130;5.430;2023-06-14T15:26:22;101766.59;;;26.84;30.00
71774;BME280;59607;52.130;5.430;2023-06-14T15:28:55;101755.63;;;26.91;30.08
71774;BME280;59607;52.130;5.430;2023-06-14T15:31:22;101761.00;;;26.91;30.21
71774;BME280;59607;52.130;5.430;2023-06-14T15:33:51;101757.06;;;26.77;30.59
71774;BME280;59607;52.130;5.430;2023-06-14T15:36:18;101765.13;;;26.77;30.36
71774;BME280;59607;52.130;5.430;2023-06-14T15:38:44;101754.19;;;26.61;30.41
71774;BME280;59607;52.130;5.430;2023-06-14T15:41:11;101755.88;;;26.67;30.26
71774;BME280;59607;52.130;5.430;2023-06-14T15:43:38;101760.75;;;26.70;30.44
71774;BME280;59607;52.130;5.430;2023-06-14T15:46:07;101760.50;;;26.72;29.76
71774;BME280;59607;52.130;5.430;2023-06-14T15:48:33;101760.00;;;26.75;29.54
71774;BME280;59607;52.130;5.430;2023-06-14T15:51:03;101758.38;;;26.74;30.08
71774;BME280;59607;52.130;5.430;2023-06-14T15:53:33;101752.94;;;26.69;29.59